Cape Romanzof LRRS Airport Cape Romanzof US
ICAO: PACZ
IATA:
Category: Medium
Scheduled Services:

Elevation: 464 ft
TransAlt. 18000 ft.

Airport Communications:
ANCHORAGE ARTCC:124.5
ANCHORAGE CNTR:132.5
KENAI RDO:122.1
INFO:126.2

PACZ Zoom In..

Runways:

(A) RW 02 length 3925 ft width 161 ft
---- / hdg 16

(B) RW 20 length 3925 ft width 161 ft
---- / hdg 196

Location; PACZ
Day. 22 / Time. 23.55 Zulu
* Altimeter: 30.28
* Temperature: -18° c. 0.4°f.
* Wind from: 020° Speed 25 kn.
Dewpoint: -20° c.
Visibility: 10 Statute Miles.
Clouds: Few 1900 ft.
Clouds: Broken 5000 ft.

PACZ 222355Z AUTO 02025KT 10SM FEW019 BKN050 M18/M20 A3028 RMK AO2 PK WND 01029/2309 SLP274 T11771201 11176 21181 54000


Wind From 020°
Speed 25 kn.

YouTube Music Video
 
jpsmedia.com for Web Design  worldairports.se 2018   terms of use